sensor_id;sensor_type;location;lat;lon;timestamp;P1;durP1;ratioP1;P2;durP2;ratioP2
75295;SDS011;64623;44.738;37.804;2023-08-20T00:00:42;7.82;;;5.78;;
75295;SDS011;64623;44.738;37.804;2023-08-20T00:01:45;7.85;;;3.70;;
75295;SDS011;64623;44.738;37.804;2023-08-20T00:02:50;12.50;;;6.05;;
75295;SDS011;64623;44.738;37.804;2023-08-20T00:03:56;7.82;;;5.50;;
75295;SDS011;64623;44.738;37.804;2023-08-20T00:04:59;8.13;;;6.07;;
75295;SDS011;64623;44.738;37.804;2023-08-20T00:06:05;6.22;;;5.57;;
75295;SDS011;64623;44.738;37.804;2023-08-20T00:07:08;6.07;;;5.55;;
75295;SDS011;64623;44.738;37.804;2023-08-20T00:08:11;8.70;;;6.20;;
75295;SDS011;64623;44.738;37.804;2023-08-20T00:09:14;8.45;;;5.43;;
75295;SDS011;64623;44.738;37.804;2023-08-20T00:10:17;6.35;;;5.75;;
75295;SDS011;64623;44.738;37.804;2023-08-20T00:11:20;6.22;;;5.05;;
75295;SDS011;64623;44.738;37.804;2023-08-20T00:12:23;7.75;;;6.22;;
75295;SDS011;64623;44.738;37.804;2023-08-20T00:13:28;7.05;;;5.93;;
75295;SDS011;64623;44.738;37.804;2023-08-20T00:16:09;6.55;;;5.95;;
75295;SDS011;64623;44.738;37.804;2023-08-20T00:17:12;8.18;;;6.20;;
75295;SDS011;64623;44.738;37.804;2023-08-20T00:18:15;8.82;;;5.80;;
75295;SDS011;64623;44.738;37.804;2023-08-20T00:19:19;7.28;;;6.55;;
75295;SDS011;64623;44.738;37.804;2023-08-20T00:20:22;6.85;;;6.25;;
75295;SDS011;64623;44.738;37.804;2023-08-20T00:21:26;11.77;;;6.82;;
75295;SDS011;64623;44.738;37.804;2023-08-20T00:22:30;7.75;;;6.35;;
75295;SDS011;64623;44.738;37.804;2023-08-20T00:23:34;9.73;;;6.43;;
75295;SDS011;64623;44.738;37.804;2023-08-20T00:24:38;6.75;;;6.10;;
75295;SDS011;64623;44.738;37.804;2023-08-20T00:25:43;7.65;;;6.00;;
75295;SDS011;64623;44.738;37.804;2023-08-20T00:26:47;8.25;;;5.95;;
75295;SDS011;64623;44.738;37.804;2023-08-20T00:27:50;6.80;;;4.95;;
75295;SDS011;64623;44.738;37.804;2023-08-20T00:28:54;7.30;;;6.57;;
75295;SDS011;64623;44.738;37.804;2023-08-20T00:29:57;8.55;;;5.78;;
75295;SDS011;64623;44.738;37.804;2023-08-20T00:31:00;7.10;;;6.40;;
75295;SDS011;64623;44.738;37.804;2023-08-20T00:32:03;7.30;;;5.78;;
75295;SDS011;64623;44.738;37.804;2023-08-20T00:33:06;5.97;;;5.32;;
75295;SDS011;64623;44.738;37.804;2023-08-20T00:34:09;8.50;;;6.88;;
75295;SDS011;64623;44.738;37.804;2023-08-20T00:35:12;8.55;;;6.10;;
75295;SDS011;64623;44.738;37.804;2023-08-20T00:36:17;7.15;;;6.55;;
75295;SDS011;64623;44.738;37.804;2023-08-20T00:37:20;8.65;;;6.70;;
75295;SDS011;64623;44.738;37.804;2023-08-20T00:38:23;7.68;;;6.97;;
75295;SDS011;64623;44.738;37.804;2023-08-20T00:39:26;8.23;;;6.78;;
75295;SDS011;64623;44.738;37.804;2023-08-20T00:40:30;8.25;;;7.45;;
75295;SDS011;64623;44.738;37.804;2023-08-20T00:41:33;8.70;;;6.45;;
75295;SDS011;64623;44.738;37.804;2023-08-20T00:42:36;7.90;;;5.15;;
75295;SDS011;64623;44.738;37.804;2023-08-20T00:43:42;9.05;;;7.05;;
75295;SDS011;64623;44.738;37.804;2023-08-20T00:44:45;8.35;;;6.97;;
75295;SDS011;64623;44.738;37.804;2023-08-20T00:45:48;8.50;;;6.95;;
75295;SDS011;64623;44.738;37.804;2023-08-20T00:46:51;8.30;;;7.40;;
75295;SDS011;64623;44.738;37.804;2023-08-20T00:47:54;8.70;;;7.80;;
75295;SDS011;64623;44.738;37.804;2023-08-20T00:48:57;9.48;;;7.63;;
75295;SDS011;64623;44.738;37.804;2023-08-20T00:50:02;8.27;;;7.28;;
75295;SDS011;64623;44.738;37.804;2023-08-20T00:51:09;7.03;;;6.30;;
75295;SDS011;64623;44.738;37.804;2023-08-20T00:52:13;8.25;;;7.47;;
75295;SDS011;64623;44.738;37.804;2023-08-20T00:53:19;6.72;;;6.13;;
75295;SDS011;64623;44.738;37.804;2023-08-20T00:54:23;7.35;;;6.65;;
75295;SDS011;64623;44.738;37.804;2023-08-20T00:55:27;9.30;;;6.47;;
75295;SDS011;64623;44.738;37.804;2023-08-20T00:56:30;7.72;;;7.03;;
75295;SDS011;64623;44.738;37.804;2023-08-20T00:57:34;8.02;;;6.88;;
75295;SDS011;64623;44.738;37.804;2023-08-20T00:58:38;7.50;;;6.82;;
75295;SDS011;64623;44.738;37.804;2023-08-20T00:59:41;7.55;;;6.85;;
75295;SDS011;64623;44.738;37.804;2023-08-20T01:00:45;7.82;;;6.40;;
75295;SDS011;64623;44.738;37.804;2023-08-20T01:01:48;8.25;;;7.45;;
75295;SDS011;64623;44.738;37.804;2023-08-20T01:02:51;8.82;;;5.75;;
75295;SDS011;64623;44.738;37.804;2023-08-20T01:03:54;8.65;;;6.50;;
75295;SDS011;64623;44.738;37.804;2023-08-20T01:04:57;9.13;;;6.90;;
75295;SDS011;64623;44.738;37.804;2023-08-20T01:06:04;8.77;;;6.25;;
75295;SDS011;64623;44.738;37.804;2023-08-20T01:08:33;5.55;;;4.65;;
75295;SDS011;64623;44.738;37.804;2023-08-20T01:12:29;7.13;;;6.43;;
75295;SDS011;64623;44.738;37.804;2023-08-20T01:13:34;6.88;;;6.25;;
75295;SDS011;64623;44.738;37.804;2023-08-20T01:14:37;7.47;;;6.85;;
75295;SDS011;64623;44.738;37.804;2023-08-20T01:15:39;8.57;;;6.85;;
75295;SDS011;64623;44.738;37.804;2023-08-20T01:16:43;7.55;;;6.78;;
75295;SDS011;64623;44.738;37.804;2023-08-20T01:17:48;6.55;;;5.03;;
75295;SDS011;64623;44.738;37.804;2023-08-20T01:18:51;7.03;;;6.43;;
75295;SDS011;64623;44.738;37.804;2023-08-20T01:19:54;7.65;;;6.90;;
75295;SDS011;64623;44.738;37.804;2023-08-20T01:20:58;8.20;;;6.47;;
75295;SDS011;64623;44.738;37.804;2023-08-20T01:23:24;8.13;;;6.47;;
75295;SDS011;64623;44.738;37.804;2023-08-20T01:26:06;6.60;;;6.00;;
75295;SDS011;64623;44.738;37.804;2023-08-20T01:28:45;8.02;;;5.97;;
75295;SDS011;64623;44.738;37.804;2023-08-20T01:29:48;8.52;;;6.45;;
75295;SDS011;64623;44.738;37.804;2023-08-20T01:30:51;9.32;;;6.22;;
75295;SDS011;64623;44.738;37.804;2023-08-20T01:31:56;9.88;;;6.53;;
75295;SDS011;64623;44.738;37.804;2023-08-20T01:33:00;7.13;;;6.38;;
75295;SDS011;64623;44.738;37.804;2023-08-20T01:34:04;7.47;;;6.43;;
75295;SDS011;64623;44.738;37.804;2023-08-20T01:35:11;8.38;;;6.90;;
75295;SDS011;64623;44.738;37.804;2023-08-20T01:36:16;8.23;;;6.43;;
75295;SDS011;64623;44.738;37.804;2023-08-20T01:37:20;8.63;;;6.47;;
75295;SDS011;64623;44.738;37.804;2023-08-20T01:38:23;7.70;;;6.88;;
75295;SDS011;64623;44.738;37.804;2023-08-20T01:39:26;11.40;;;6.88;;
75295;SDS011;64623;44.738;37.804;2023-08-20T01:40:30;7.75;;;6.72;;
75295;SDS011;64623;44.738;37.804;2023-08-20T01:41:34;9.52;;;6.82;;
75295;SDS011;64623;44.738;37.804;2023-08-20T01:42:37;7.25;;;6.50;;
75295;SDS011;64623;44.738;37.804;2023-08-20T01:43:41;8.15;;;6.28;;
75295;SDS011;64623;44.738;37.804;2023-08-20T01:44:45;8.68;;;6.72;;
75295;SDS011;64623;44.738;37.804;2023-08-20T01:45:48;8.98;;;6.60;;
75295;SDS011;64623;44.738;37.804;2023-08-20T01:46:51;10.65;;;6.65;;
75295;SDS011;64623;44.738;37.804;2023-08-20T01:47:54;9.63;;;7.63;;
75295;SDS011;64623;44.738;37.804;2023-08-20T01:48:57;9.00;;;7.45;;
75295;SDS011;64623;44.738;37.804;2023-08-20T01:50:01;13.82;;;7.15;;
75295;SDS011;64623;44.738;37.804;2023-08-20T01:51:06;9.10;;;7.50;;
75295;SDS011;64623;44.738;37.804;2023-08-20T01:52:09;9.82;;;6.97;;
75295;SDS011;64623;44.738;37.804;2023-08-20T01:53:12;12.85;;;7.43;;
75295;SDS011;64623;44.738;37.804;2023-08-20T01:54:15;12.70;;;7.43;;
75295;SDS011;64623;44.738;37.804;2023-08-20T01:55:18;14.10;;;7.35;;
75295;SDS011;64623;44.738;37.804;2023-08-20T01:56:21;14.35;;;7.70;;
75295;SDS011;64623;44.738;37.804;2023-08-20T01:57:24;10.38;;;7.57;;
75295;SDS011;64623;44.738;37.804;2023-08-20T01:58:27;11.43;;;7.57;;
75295;SDS011;64623;44.738;37.804;2023-08-20T01:59:30;14.45;;;8.43;;
75295;SDS011;64623;44.738;37.804;2023-08-20T02:00:34;8.48;;;7.60;;
75295;SDS011;64623;44.738;37.804;2023-08-20T02:01:36;14.35;;;7.97;;
75295;SDS011;64623;44.738;37.804;2023-08-20T02:02:40;11.77;;;7.57;;
75295;SDS011;64623;44.738;37.804;2023-08-20T02:03:43;16.05;;;8.25;;
75295;SDS011;64623;44.738;37.804;2023-08-20T02:04:46;13.18;;;7.63;;
75295;SDS011;64623;44.738;37.804;2023-08-20T02:05:50;12.50;;;8.40;;
75295;SDS011;64623;44.738;37.804;2023-08-20T02:06:53;14.20;;;7.90;;
75295;SDS011;64623;44.738;37.804;2023-08-20T02:07:56;11.35;;;8.38;;
75295;SDS011;64623;44.738;37.804;2023-08-20T02:08:59;13.68;;;8.05;;
75295;SDS011;64623;44.738;37.804;2023-08-20T02:10:02;11.35;;;7.85;;
75295;SDS011;64623;44.738;37.804;2023-08-20T02:11:05;15.18;;;8.77;;
75295;SDS011;64623;44.738;37.804;2023-08-20T02:12:10;11.98;;;8.52;;
75295;SDS011;64623;44.738;37.804;2023-08-20T02:13:13;8.38;;;7.57;;
75295;SDS011;64623;44.738;37.804;2023-08-20T02:14:16;17.77;;;7.70;;
75295;SDS011;64623;44.738;37.804;2023-08-20T02:15:19;12.45;;;7.22;;
75295;SDS011;64623;44.738;37.804;2023-08-20T02:16:22;13.02;;;7.18;;
75295;SDS011;64623;44.738;37.804;2023-08-20T02:17:25;10.30;;;7.30;;
75295;SDS011;64623;44.738;37.804;2023-08-20T02:18:28;13.63;;;6.85;;
75295;SDS011;64623;44.738;37.804;2023-08-20T02:19:32;9.50;;;6.95;;
75295;SDS011;64623;44.738;37.804;2023-08-20T02:20:35;10.63;;;7.65;;
75295;SDS011;64623;44.738;37.804;2023-08-20T02:21:38;8.82;;;7.38;;
75295;SDS011;64623;44.738;37.804;2023-08-20T02:22:41;8.70;;;7.22;;
75295;SDS011;64623;44.738;37.804;2023-08-20T02:23:44;11.48;;;7.65;;
75295;SDS011;64623;44.738;37.804;2023-08-20T02:24:47;12.98;;;8.07;;
75295;SDS011;64623;44.738;37.804;2023-08-20T02:25:55;12.20;;;9.13;;
75295;SDS011;64623;44.738;37.804;2023-08-20T02:27:04;11.10;;;7.85;;
75295;SDS011;64623;44.738;37.804;2023-08-20T02:28:07;11.30;;;7.93;;
75295;SDS011;64623;44.738;37.804;2023-08-20T02:29:10;12.18;;;7.65;;
75295;SDS011;64623;44.738;37.804;2023-08-20T02:30:13;9.32;;;7.35;;
75295;SDS011;64623;44.738;37.804;2023-08-20T02:31:16;10.85;;;8.63;;
75295;SDS011;64623;44.738;37.804;2023-08-20T02:32:22;12.32;;;7.95;;
75295;SDS011;64623;44.738;37.804;2023-08-20T02:33:25;14.55;;;8.18;;
75295;SDS011;64623;44.738;37.804;2023-08-20T02:34:28;10.55;;;7.75;;
75295;SDS011;64623;44.738;37.804;2023-08-20T02:35:31;10.90;;;7.82;;
75295;SDS011;64623;44.738;37.804;2023-08-20T02:36:34;11.27;;;7.68;;
75295;SDS011;64623;44.738;37.804;2023-08-20T02:37:37;12.38;;;7.43;;
75295;SDS011;64623;44.738;37.804;2023-08-20T02:38:40;12.07;;;7.55;;
75295;SDS011;64623;44.738;37.804;2023-08-20T02:39:43;15.50;;;8.50;;
75295;SDS011;64623;44.738;37.804;2023-08-20T02:40:48;10.02;;;7.65;;
75295;SDS011;64623;44.738;37.804;2023-08-20T02:41:51;13.80;;;7.75;;
75295;SDS011;64623;44.738;37.804;2023-08-20T02:42:54;11.07;;;7.38;;
75295;SDS011;64623;44.738;37.804;2023-08-20T02:43:58;10.55;;;6.97;;
75295;SDS011;64623;44.738;37.804;2023-08-20T02:45:01;9.32;;;7.70;;
75295;SDS011;64623;44.738;37.804;2023-08-20T02:46:05;10.48;;;7.88;;
75295;SDS011;64623;44.738;37.804;2023-08-20T02:47:09;10.27;;;7.57;;
75295;SDS011;64623;44.738;37.804;2023-08-20T02:48:13;11.70;;;7.20;;
75295;SDS011;64623;44.738;37.804;2023-08-20T02:49:16;12.32;;;8.40;;
75295;SDS011;64623;44.738;37.804;2023-08-20T02:50:19;11.18;;;8.30;;
75295;SDS011;64623;44.738;37.804;2023-08-20T02:51:23;11.40;;;7.45;;
75295;SDS011;64623;44.738;37.804;2023-08-20T02:52:26;11.57;;;6.13;;
75295;SDS011;64623;44.738;37.804;2023-08-20T02:53:30;11.20;;;7.18;;
75295;SDS011;64623;44.738;37.804;2023-08-20T02:54:33;10.13;;;7.72;;
75295;SDS011;64623;44.738;37.804;2023-08-20T02:55:36;15.00;;;8.15;;
75295;SDS011;64623;44.738;37.804;2023-08-20T02:56:40;8.88;;;7.80;;
75295;SDS011;64623;44.738;37.804;2023-08-20T02:57:43;12.82;;;7.57;;
75295;SDS011;64623;44.738;37.804;2023-08-20T02:58:46;12.43;;;8.38;;
75295;SDS011;64623;44.738;37.804;2023-08-20T02:59:50;8.60;;;7.65;;
75295;SDS011;64623;44.738;37.804;2023-08-20T03:00:53;10.27;;;7.10;;
75295;SDS011;64623;44.738;37.804;2023-08-20T03:01:56;11.57;;;7.93;;
75295;SDS011;64623;44.738;37.804;2023-08-20T03:02:59;12.63;;;7.75;;
75295;SDS011;64623;44.738;37.804;2023-08-20T03:04:03;10.95;;;6.57;;
75295;SDS011;64623;44.738;37.804;2023-08-20T03:05:06;14.80;;;7.30;;
75295;SDS011;64623;44.738;37.804;2023-08-20T03:06:11;11.65;;;5.70;;
75295;SDS011;64623;44.738;37.804;2023-08-20T03:07:14;11.65;;;7.35;;
75295;SDS011;64623;44.738;37.804;2023-08-20T03:08:18;11.30;;;7.05;;
75295;SDS011;64623;44.738;37.804;2023-08-20T03:09:21;11.15;;;7.53;;
75295;SDS011;64623;44.738;37.804;2023-08-20T03:10:24;10.27;;;7.47;;
75295;SDS011;64623;44.738;37.804;2023-08-20T03:11:27;12.38;;;7.60;;
75295;SDS011;64623;44.738;37.804;2023-08-20T03:12:30;9.88;;;7.10;;
75295;SDS011;64623;44.738;37.804;2023-08-20T03:13:33;12.00;;;7.32;;
75295;SDS011;64623;44.738;37.804;2023-08-20T03:14:36;13.48;;;7.43;;
75295;SDS011;64623;44.738;37.804;2023-08-20T03:15:39;9.68;;;7.57;;
75295;SDS011;64623;44.738;37.804;2023-08-20T03:16:42;11.13;;;7.80;;
75295;SDS011;64623;44.738;37.804;2023-08-20T03:17:45;11.02;;;7.80;;
75295;SDS011;64623;44.738;37.804;2023-08-20T03:18:48;9.45;;;6.32;;
75295;SDS011;64623;44.738;37.804;2023-08-20T03:19:55;9.98;;;6.85;;
75295;SDS011;64623;44.738;37.804;2023-08-20T03:22:02;8.63;;;7.35;;
75295;SDS011;64623;44.738;37.804;2023-08-20T03:23:05;13.57;;;7.25;;
75295;SDS011;64623;44.738;37.804;2023-08-20T03:24:08;12.68;;;7.78;;
75295;SDS011;64623;44.738;37.804;2023-08-20T03:25:11;9.00;;;7.82;;
75295;SDS011;64623;44.738;37.804;2023-08-20T03:26:14;10.55;;;7.63;;
75295;SDS011;64623;44.738;37.804;2023-08-20T03:27:17;15.15;;;7.30;;
75295;SDS011;64623;44.738;37.804;2023-08-20T03:28:21;8.13;;;6.60;;
75295;SDS011;64623;44.738;37.804;2023-08-20T03:29:24;9.50;;;6.55;;
75295;SDS011;64623;44.738;37.804;2023-08-20T03:30:27;15.80;;;8.07;;
75295;SDS011;64623;44.738;37.804;2023-08-20T03:31:30;12.15;;;8.02;;
75295;SDS011;64623;44.738;37.804;2023-08-20T03:32:33;8.85;;;7.22;;
75295;SDS011;64623;44.738;37.804;2023-08-20T03:33:36;8.77;;;6.97;;
75295;SDS011;64623;44.738;37.804;2023-08-20T03:34:39;10.40;;;7.47;;
75295;SDS011;64623;44.738;37.804;2023-08-20T03:35:43;11.98;;;7.85;;
75295;SDS011;64623;44.738;37.804;2023-08-20T03:36:46;14.05;;;7.35;;
75295;SDS011;64623;44.738;37.804;2023-08-20T03:37:49;9.60;;;7.32;;
75295;SDS011;64623;44.738;37.804;2023-08-20T03:38:52;11.38;;;7.30;;
75295;SDS011;64623;44.738;37.804;2023-08-20T03:39:56;14.25;;;8.80;;
75295;SDS011;64623;44.738;37.804;2023-08-20T03:40:59;16.98;;;7.60;;
75295;SDS011;64623;44.738;37.804;2023-08-20T03:42:02;13.65;;;7.18;;
75295;SDS011;64623;44.738;37.804;2023-08-20T03:43:05;13.10;;;6.82;;
75295;SDS011;64623;44.738;37.804;2023-08-20T03:44:08;13.13;;;7.50;;
75295;SDS011;64623;44.738;37.804;2023-08-20T03:45:11;12.25;;;7.05;;
75295;SDS011;64623;44.738;37.804;2023-08-20T03:46:14;13.27;;;8.05;;
75295;SDS011;64623;44.738;37.804;2023-08-20T03:47:18;10.80;;;7.63;;
75295;SDS011;64623;44.738;37.804;2023-08-20T03:48:22;8.82;;;7.40;;
75295;SDS011;64623;44.738;37.804;2023-08-20T03:49:26;11.00;;;7.30;;
75295;SDS011;64623;44.738;37.804;2023-08-20T03:50:29;12.85;;;8.45;;
75295;SDS011;64623;44.738;37.804;2023-08-20T03:51:32;9.95;;;7.35;;
75295;SDS011;64623;44.738;37.804;2023-08-20T03:52:36;9.65;;;7.15;;
75295;SDS011;64623;44.738;37.804;2023-08-20T03:53:39;13.43;;;7.43;;
75295;SDS011;64623;44.738;37.804;2023-08-20T03:54:42;11.52;;;7.13;;
75295;SDS011;64623;44.738;37.804;2023-08-20T03:55:48;8.32;;;7.20;;
75295;SDS011;64623;44.738;37.804;2023-08-20T03:56:52;13.65;;;7.70;;
75295;SDS011;64623;44.738;37.804;2023-08-20T03:57:55;11.63;;;7.32;;
75295;SDS011;64623;44.738;37.804;2023-08-20T03:58:58;10.45;;;7.13;;
75295;SDS011;64623;44.738;37.804;2023-08-20T04:00:01;9.30;;;7.45;;
75295;SDS011;64623;44.738;37.804;2023-08-20T04:01:16;8.18;;;7.18;;
75295;SDS011;64623;44.738;37.804;2023-08-20T04:02:20;14.93;;;7.57;;
75295;SDS011;64623;44.738;37.804;2023-08-20T04:03:23;10.75;;;6.38;;
75295;SDS011;64623;44.738;37.804;2023-08-20T04:04:26;12.27;;;7.65;;
75295;SDS011;64623;44.738;37.804;2023-08-20T04:05:29;7.72;;;6.90;;
75295;SDS011;64623;44.738;37.804;2023-08-20T04:06:32;10.82;;;7.03;;
75295;SDS011;64623;44.738;37.804;2023-08-20T04:07:35;9.00;;;6.55;;
75295;SDS011;64623;44.738;37.804;2023-08-20T04:08:38;10.75;;;6.60;;
75295;SDS011;64623;44.738;37.804;2023-08-20T04:09:41;9.43;;;7.10;;
75295;SDS011;64623;44.738;37.804;2023-08-20T04:10:47;12.00;;;6.63;;
75295;SDS011;64623;44.738;37.804;2023-08-20T04:11:52;8.40;;;6.97;;
75295;SDS011;64623;44.738;37.804;2023-08-20T04:12:55;9.50;;;6.55;;
75295;SDS011;64623;44.738;37.804;2023-08-20T04:13:58;12.60;;;6.88;;
75295;SDS011;64623;44.738;37.804;2023-08-20T04:15:01;8.13;;;6.63;;
75295;SDS011;64623;44.738;37.804;2023-08-20T04:16:05;7.90;;;7.15;;
75295;SDS011;64623;44.738;37.804;2023-08-20T04:17:08;9.00;;;6.82;;
75295;SDS011;64623;44.738;37.804;2023-08-20T04:18:11;11.35;;;7.07;;
75295;SDS011;64623;44.738;37.804;2023-08-20T04:19:14;7.35;;;6.47;;
75295;SDS011;64623;44.738;37.804;2023-08-20T04:20:17;8.32;;;6.80;;
75295;SDS011;64623;44.738;37.804;2023-08-20T04:21:21;7.85;;;6.05;;
75295;SDS011;64623;44.738;37.804;2023-08-20T04:22:24;8.70;;;4.82;;
75295;SDS011;64623;44.738;37.804;2023-08-20T04:23:28;8.38;;;6.53;;
75295;SDS011;64623;44.738;37.804;2023-08-20T04:24:31;9.98;;;7.40;;
75295;SDS011;64623;44.738;37.804;2023-08-20T04:25:34;8.85;;;7.07;;
75295;SDS011;64623;44.738;37.804;2023-08-20T04:26:37;9.23;;;6.53;;
75295;SDS011;64623;44.738;37.804;2023-08-20T04:27:40;7.50;;;6.43;;
75295;SDS011;64623;44.738;37.804;2023-08-20T04:28:43;9.30;;;6.45;;
75295;SDS011;64623;44.738;37.804;2023-08-20T04:29:46;10.80;;;6.65;;
75295;SDS011;64623;44.738;37.804;2023-08-20T04:30:52;6.88;;;5.93;;
75295;SDS011;64623;44.738;37.804;2023-08-20T04:31:58;7.45;;;5.65;;
75295;SDS011;64623;44.738;37.804;2023-08-20T04:33:01;8.73;;;6.18;;
75295;SDS011;64623;44.738;37.804;2023-08-20T04:34:05;11.27;;;6.47;;
75295;SDS011;64623;44.738;37.804;2023-08-20T04:35:21;11.07;;;5.57;;
75295;SDS011;64623;44.738;37.804;2023-08-20T04:36:25;8.88;;;5.93;;
75295;SDS011;64623;44.738;37.804;2023-08-20T04:37:28;8.40;;;6.18;;
75295;SDS011;64623;44.738;37.804;2023-08-20T04:38:32;6.05;;;5.45;;
75295;SDS011;64623;44.738;37.804;2023-08-20T04:39:36;9.50;;;5.90;;
75295;SDS011;64623;44.738;37.804;2023-08-20T04:40:39;7.45;;;6.05;;
75295;SDS011;64623;44.738;37.804;2023-08-20T04:41:42;8.23;;;5.43;;
75295;SDS011;64623;44.738;37.804;2023-08-20T04:42:50;7.40;;;5.45;;
75295;SDS011;64623;44.738;37.804;2023-08-20T04:43:55;7.15;;;6.05;;
75295;SDS011;64623;44.738;37.804;2023-08-20T04:44:58;7.75;;;6.47;;
75295;SDS011;64623;44.738;37.804;2023-08-20T04:46:02;10.98;;;6.43;;
75295;SDS011;64623;44.738;37.804;2023-08-20T04:47:05;7.60;;;6.13;;
75295;SDS011;64623;44.738;37.804;2023-08-20T04:48:09;8.95;;;5.88;;
75295;SDS011;64623;44.738;37.804;2023-08-20T04:49:12;10.90;;;6.03;;
75295;SDS011;64623;44.738;37.804;2023-08-20T04:50:16;8.13;;;5.60;;
75295;SDS011;64623;44.738;37.804;2023-08-20T04:51:20;7.38;;;6.65;;
75295;SDS011;64623;44.738;37.804;2023-08-20T04:52:23;9.05;;;5.60;;
75295;SDS011;64623;44.738;37.804;2023-08-20T04:53:26;8.45;;;5.03;;
75295;SDS011;64623;44.738;37.804;2023-08-20T04:54:29;6.85;;;5.57;;
75295;SDS011;64623;44.738;37.804;2023-08-20T04:55:32;9.45;;;5.82;;
75295;SDS011;64623;44.738;37.804;2023-08-20T04:56:35;9.10;;;6.32;;
75295;SDS011;64623;44.738;37.804;2023-08-20T04:57:38;6.45;;;5.45;;
75295;SDS011;64623;44.738;37.804;2023-08-20T04:58:42;8.60;;;6.13;;
75295;SDS011;64623;44.738;37.804;2023-08-20T04:59:45;10.00;;;6.05;;
75295;SDS011;64623;44.738;37.804;2023-08-20T05:01:07;10.10;;;6.00;;
75295;SDS011;64623;44.738;37.804;2023-08-20T05:02:11;7.22;;;6.15;;
75295;SDS011;64623;44.738;37.804;2023-08-20T05:03:20;7.25;;;5.93;;
75295;SDS011;64623;44.738;37.804;2023-08-20T05:04:24;8.50;;;5.53;;
75295;SDS011;64623;44.738;37.804;2023-08-20T05:05:27;6.03;;;5.45;;
75295;SDS011;64623;44.738;37.804;2023-08-20T05:06:31;9.15;;;5.70;;
75295;SDS011;64623;44.738;37.804;2023-08-20T05:07:34;8.52;;;5.80;;
75295;SDS011;64623;44.738;37.804;2023-08-20T05:08:37;6.05;;;4.78;;
75295;SDS011;64623;44.738;37.804;2023-08-20T05:09:43;8.13;;;5.47;;
75295;SDS011;64623;44.738;37.804;2023-08-20T05:10:46;6.25;;;5.05;;
75295;SDS011;64623;44.738;37.804;2023-08-20T05:11:49;8.05;;;5.22;;
75295;SDS011;64623;44.738;37.804;2023-08-20T05:12:52;7.32;;;5.53;;
75295;SDS011;64623;44.738;37.804;2023-08-20T05:13:55;7.35;;;5.13;;
75295;SDS011;64623;44.738;37.804;2023-08-20T05:14:58;5.68;;;4.78;;
75295;SDS011;64623;44.738;37.804;2023-08-20T05:16:01;9.38;;;4.72;;
75295;SDS011;64623;44.738;37.804;2023-08-20T05:17:05;8.32;;;4.85;;
75295;SDS011;64623;44.738;37.804;2023-08-20T05:18:08;7.03;;;5.32;;
75295;SDS011;64623;44.738;37.804;2023-08-20T05:19:11;8.73;;;4.90;;
75295;SDS011;64623;44.738;37.804;2023-08-20T05:20:14;7.68;;;4.97;;
75295;SDS011;64623;44.738;37.804;2023-08-20T05:21:18;9.13;;;5.07;;
75295;SDS011;64623;44.738;37.804;2023-08-20T05:22:22;6.32;;;4.72;;
75295;SDS011;64623;44.738;37.804;2023-08-20T05:23:25;5.80;;;4.70;;
75295;SDS011;64623;44.738;37.804;2023-08-20T05:24:28;6.68;;;3.20;;
75295;SDS011;64623;44.738;37.804;2023-08-20T05:25:31;5.85;;;4.53;;
75295;SDS011;64623;44.738;37.804;2023-08-20T05:26:34;9.38;;;5.53;;
75295;SDS011;64623;44.738;37.804;2023-08-20T05:27:37;8.23;;;4.88;;
75295;SDS011;64623;44.738;37.804;2023-08-20T05:28:40;5.07;;;4.43;;
75295;SDS011;64623;44.738;37.804;2023-08-20T05:29:43;6.97;;;4.18;;
75295;SDS011;64623;44.738;37.804;2023-08-20T05:30:56;10.15;;;5.68;;
75295;SDS011;64623;44.738;37.804;2023-08-20T05:31:59;6.88;;;4.65;;
75295;SDS011;64623;44.738;37.804;2023-08-20T05:33:02;9.98;;;4.50;;
75295;SDS011;64623;44.738;37.804;2023-08-20T05:34:10;6.28;;;5.60;;
75295;SDS011;64623;44.738;37.804;2023-08-20T05:35:13;6.32;;;4.93;;
75295;SDS011;64623;44.738;37.804;2023-08-20T05:36:17;6.88;;;4.60;;
75295;SDS011;64623;44.738;37.804;2023-08-20T05:37:22;5.07;;;4.60;;
75295;SDS011;64623;44.738;37.804;2023-08-20T05:38:25;5.55;;;4.55;;
75295;SDS011;64623;44.738;37.804;2023-08-20T05:39:29;8.20;;;5.55;;
75295;SDS011;64623;44.738;37.804;2023-08-20T05:40:33;5.70;;;4.30;;
75295;SDS011;64623;44.738;37.804;2023-08-20T05:41:36;8.35;;;5.25;;
75295;SDS011;64623;44.738;37.804;2023-08-20T05:42:39;5.63;;;5.03;;
75295;SDS011;64623;44.738;37.804;2023-08-20T05:43:42;6.03;;;4.68;;
75295;SDS011;64623;44.738;37.804;2023-08-20T05:44:45;7.10;;;5.05;;
75295;SDS011;64623;44.738;37.804;2023-08-20T05:45:52;9.70;;;5.07;;
75295;SDS011;64623;44.738;37.804;2023-08-20T05:46:57;12.65;;;4.30;;
75295;SDS011;64623;44.738;37.804;2023-08-20T05:48:01;13.52;;;6.15;;
75295;SDS011;64623;44.738;37.804;2023-08-20T05:49:04;15.25;;;5.15;;
75295;SDS011;64623;44.738;37.804;2023-08-20T05:50:09;7.40;;;4.43;;
75295;SDS011;64623;44.738;37.804;2023-08-20T05:51:12;8.52;;;4.78;;
75295;SDS011;64623;44.738;37.804;2023-08-20T05:52:15;9.70;;;4.97;;
75295;SDS011;64623;44.738;37.804;2023-08-20T05:53:18;5.22;;;4.72;;
75295;SDS011;64623;44.738;37.804;2023-08-20T05:54:21;8.52;;;4.88;;
75295;SDS011;64623;44.738;37.804;2023-08-20T05:55:27;6.85;;;5.07;;
75295;SDS011;64623;44.738;37.804;2023-08-20T05:56:30;9.40;;;5.18;;
75295;SDS011;64623;44.738;37.804;2023-08-20T05:57:34;11.07;;;5.15;;
75295;SDS011;64623;44.738;37.804;2023-08-20T05:58:39;6.10;;;5.05;;
75295;SDS011;64623;44.738;37.804;2023-08-20T05:59:42;10.95;;;4.68;;
75295;SDS011;64623;44.738;37.804;2023-08-20T06:00:46;10.27;;;5.63;;
75295;SDS011;64623;44.738;37.804;2023-08-20T06:01:49;8.07;;;3.05;;
75295;SDS011;64623;44.738;37.804;2023-08-20T06:02:52;7.88;;;4.97;;
75295;SDS011;64623;44.738;37.804;2023-08-20T06:03:55;7.82;;;5.13;;
75295;SDS011;64623;44.738;37.804;2023-08-20T06:04:58;11.93;;;4.65;;
75295;SDS011;64623;44.738;37.804;2023-08-20T06:06:01;6.65;;;4.75;;
75295;SDS011;64623;44.738;37.804;2023-08-20T06:07:05;7.55;;;4.80;;
75295;SDS011;64623;44.738;37.804;2023-08-20T06:08:08;5.82;;;5.10;;
75295;SDS011;64623;44.738;37.804;2023-08-20T06:09:11;7.18;;;5.13;;
75295;SDS011;64623;44.738;37.804;2023-08-20T06:10:15;5.15;;;2.72;;
75295;SDS011;64623;44.738;37.804;2023-08-20T06:11:20;10.90;;;3.08;;
75295;SDS011;64623;44.738;37.804;2023-08-20T06:12:23;8.10;;;5.15;;
75295;SDS011;64623;44.738;37.804;2023-08-20T06:13:26;4.93;;;4.55;;
75295;SDS011;64623;44.738;37.804;2023-08-20T06:14:29;10.57;;;4.88;;
75295;SDS011;64623;44.738;37.804;2023-08-20T06:15:32;6.90;;;4.65;;
75295;SDS011;64623;44.738;37.804;2023-08-20T06:16:36;11.70;;;4.38;;
75295;SDS011;64623;44.738;37.804;2023-08-20T06:17:39;14.75;;;4.80;;
75295;SDS011;64623;44.738;37.804;2023-08-20T06:18:42;13.23;;;2.88;;
75295;SDS011;64623;44.738;37.804;2023-08-20T06:19:45;12.43;;;4.18;;
75295;SDS011;64623;44.738;37.804;2023-08-20T06:20:48;12.48;;;4.53;;
75295;SDS011;64623;44.738;37.804;2023-08-20T06:21:51;18.70;;;5.10;;
75295;SDS011;64623;44.738;37.804;2023-08-20T06:22:54;8.10;;;4.40;;
75295;SDS011;64623;44.738;37.804;2023-08-20T06:23:57;13.85;;;5.18;;
75295;SDS011;64623;44.738;37.804;2023-08-20T06:25:00;8.77;;;4.25;;
75295;SDS011;64623;44.738;37.804;2023-08-20T06:26:03;6.13;;;3.92;;
75295;SDS011;64623;44.738;37.804;2023-08-20T06:27:06;7.30;;;5.13;;
75295;SDS011;64623;44.738;37.804;2023-08-20T06:28:09;6.40;;;4.20;;